sensor_id;sensor_type;location;lat;lon;timestamp;temperature;humidity
25556;DHT22;13447;57.174;-2.112;2022-07-23T00:00:41;13.80;99.90
25556;DHT22;13447;57.174;-2.112;2022-07-23T00:03:08;13.80;99.90
25556;DHT22;13447;57.174;-2.112;2022-07-23T00:05:35;13.70;99.90
25556;DHT22;13447;57.174;-2.112;2022-07-23T00:08:05;13.70;99.90
25556;DHT22;13447;57.174;-2.112;2022-07-23T00:10:40;13.70;99.90
25556;DHT22;13447;57.174;-2.112;2022-07-23T00:13:07;13.60;99.90
25556;DHT22;13447;57.174;-2.112;2022-07-23T00:15:35;13.60;99.90
25556;DHT22;13447;57.174;-2.112;2022-07-23T00:18:02;13.50;99.90
25556;DHT22;13447;57.174;-2.112;2022-07-23T00:20:29;13.40;99.90
25556;DHT22;13447;57.174;-2.112;2022-07-23T00:22:56;13.40;99.90
25556;DHT22;13447;57.174;-2.112;2022-07-23T00:25:24;13.30;99.90
25556;DHT22;13447;57.174;-2.112;2022-07-23T00:28:00;13.30;99.90
25556;DHT22;13447;57.174;-2.112;2022-07-23T00:30:28;13.30;99.90
25556;DHT22;13447;57.174;-2.112;2022-07-23T00:33:00;13.30;99.90
25556;DHT22;13447;57.174;-2.112;2022-07-23T00:35:30;13.30;99.90
25556;DHT22;13447;57.174;-2.112;2022-07-23T00:37:59;13.30;99.90
25556;DHT22;13447;57.174;-2.112;2022-07-23T00:40:27;13.30;99.90
25556;DHT22;13447;57.174;-2.112;2022-07-23T00:42:55;13.30;99.90
25556;DHT22;13447;57.174;-2.112;2022-07-23T00:45:22;13.40;99.90
25556;DHT22;13447;57.174;-2.112;2022-07-23T00:47:49;13.40;99.90
25556;DHT22;13447;57.174;-2.112;2022-07-23T00:50:16;13.40;99.90
25556;DHT22;13447;57.174;-2.112;2022-07-23T00:52:44;13.50;99.90
25556;DHT22;13447;57.174;-2.112;2022-07-23T00:55:11;13.50;99.90
25556;DHT22;13447;57.174;-2.112;2022-07-23T00:57:40;13.50;99.90
25556;DHT22;13447;57.174;-2.112;2022-07-23T01:00:10;13.50;99.90
25556;DHT22;13447;57.174;-2.112;2022-07-23T01:02:38;13.50;99.90
25556;DHT22;13447;57.174;-2.112;2022-07-23T01:05:06;13.50;99.90
25556;DHT22;13447;57.174;-2.112;2022-07-23T01:07:33;13.50;99.90
25556;DHT22;13447;57.174;-2.112;2022-07-23T01:10:01;13.60;99.90
25556;DHT22;13447;57.174;-2.112;2022-07-23T01:12:29;13.60;99.90
25556;DHT22;13447;57.174;-2.112;2022-07-23T01:15:00;13.60;99.90
25556;DHT22;13447;57.174;-2.112;2022-07-23T01:17:27;13.60;99.90
25556;DHT22;13447;57.174;-2.112;2022-07-23T01:19:54;13.60;99.90
25556;DHT22;13447;57.174;-2.112;2022-07-23T01:22:21;13.60;99.90
25556;DHT22;13447;57.174;-2.112;2022-07-23T01:24:49;13.60;99.90
25556;DHT22;13447;57.174;-2.112;2022-07-23T01:27:16;13.60;99.90
25556;DHT22;13447;57.174;-2.112;2022-07-23T01:29:44;13.70;99.90
25556;DHT22;13447;57.174;-2.112;2022-07-23T01:32:11;13.70;99.90
25556;DHT22;13447;57.174;-2.112;2022-07-23T01:34:39;13.70;99.90
25556;DHT22;13447;57.174;-2.112;2022-07-23T01:37:07;13.70;99.90
25556;DHT22;13447;57.174;-2.112;2022-07-23T01:39:35;13.70;99.90
25556;DHT22;13447;57.174;-2.112;2022-07-23T01:42:02;13.80;99.90
25556;DHT22;13447;57.174;-2.112;2022-07-23T01:44:29;13.70;99.90
25556;DHT22;13447;57.174;-2.112;2022-07-23T01:46:56;13.80;99.90
25556;DHT22;13447;57.174;-2.112;2022-07-23T01:49:23;13.80;99.90
25556;DHT22;13447;57.174;-2.112;2022-07-23T01:51:50;13.80;99.90
25556;DHT22;13447;57.174;-2.112;2022-07-23T01:54:27;13.80;99.90
25556;DHT22;13447;57.174;-2.112;2022-07-23T01:56:54;13.80;99.90
25556;DHT22;13447;57.174;-2.112;2022-07-23T01:59:22;13.80;99.90
25556;DHT22;13447;57.174;-2.112;2022-07-23T02:01:49;13.80;99.90
25556;DHT22;13447;57.174;-2.112;2022-07-23T02:04:20;13.80;99.90
25556;DHT22;13447;57.174;-2.112;2022-07-23T02:06:48;13.80;99.90
25556;DHT22;13447;57.174;-2.112;2022-07-23T02:09:16;13.80;99.90
25556;DHT22;13447;57.174;-2.112;2022-07-23T02:11:43;13.80;99.90
25556;DHT22;13447;57.174;-2.112;2022-07-23T02:14:10;13.80;99.90
25556;DHT22;13447;57.174;-2.112;2022-07-23T02:16:37;13.80;99.90
25556;DHT22;13447;57.174;-2.112;2022-07-23T02:19:04;13.80;99.90
25556;DHT22;13447;57.174;-2.112;2022-07-23T02:21:31;13.80;99.90
25556;DHT22;13447;57.174;-2.112;2022-07-23T02:23:58;13.80;99.90
25556;DHT22;13447;57.174;-2.112;2022-07-23T02:26:25;13.80;99.90
25556;DHT22;13447;57.174;-2.112;2022-07-23T02:28:52;13.80;99.90
25556;DHT22;13447;57.174;-2.112;2022-07-23T02:31:22;13.80;99.90
25556;DHT22;13447;57.174;-2.112;2022-07-23T02:33:49;13.80;99.90
25556;DHT22;13447;57.174;-2.112;2022-07-23T02:36:16;13.80;99.90
25556;DHT22;13447;57.174;-2.112;2022-07-23T02:38:42;13.90;99.90
25556;DHT22;13447;57.174;-2.112;2022-07-23T02:41:09;13.90;99.90
25556;DHT22;13447;57.174;-2.112;2022-07-23T02:43:36;13.90;99.90
25556;DHT22;13447;57.174;-2.112;2022-07-23T02:46:03;13.90;99.90
25556;DHT22;13447;57.174;-2.112;2022-07-23T02:48:31;13.80;99.90
25556;DHT22;13447;57.174;-2.112;2022-07-23T02:51:00;13.90;99.90
25556;DHT22;13447;57.174;-2.112;2022-07-23T02:53:27;13.90;99.90
25556;DHT22;13447;57.174;-2.112;2022-07-23T02:55:54;13.90;99.90
25556;DHT22;13447;57.174;-2.112;2022-07-23T02:58:21;13.90;99.90
25556;DHT22;13447;57.174;-2.112;2022-07-23T03:00:48;13.90;99.90
25556;DHT22;13447;57.174;-2.112;2022-07-23T03:03:16;13.80;99.90
25556;DHT22;13447;57.174;-2.112;2022-07-23T03:05:43;13.90;99.90
25556;DHT22;13447;57.174;-2.112;2022-07-23T03:08:10;13.90;99.90
25556;DHT22;13447;57.174;-2.112;2022-07-23T03:10:37;13.90;99.90
25556;DHT22;13447;57.174;-2.112;2022-07-23T03:13:04;13.90;99.90
25556;DHT22;13447;57.174;-2.112;2022-07-23T03:15:31;14.00;99.90
25556;DHT22;13447;57.174;-2.112;2022-07-23T03:17:58;14.00;99.90
25556;DHT22;13447;57.174;-2.112;2022-07-23T03:20:25;14.00;99.90
25556;DHT22;13447;57.174;-2.112;2022-07-23T03:22:52;14.00;99.90
25556;DHT22;13447;57.174;-2.112;2022-07-23T03:25:19;14.00;99.90
25556;DHT22;13447;57.174;-2.112;2022-07-23T03:27:46;14.00;99.90
25556;DHT22;13447;57.174;-2.112;2022-07-23T03:30:13;14.00;99.90
25556;DHT22;13447;57.174;-2.112;2022-07-23T03:32:40;14.00;99.90
25556;DHT22;13447;57.174;-2.112;2022-07-23T03:35:07;14.00;99.90
25556;DHT22;13447;57.174;-2.112;2022-07-23T03:37:34;14.00;99.90
25556;DHT22;13447;57.174;-2.112;2022-07-23T03:40:01;14.00;99.90
25556;DHT22;13447;57.174;-2.112;2022-07-23T03:42:29;14.10;99.90
25556;DHT22;13447;57.174;-2.112;2022-07-23T03:44:55;14.10;99.90
25556;DHT22;13447;57.174;-2.112;2022-07-23T03:47:22;14.10;99.90
25556;DHT22;13447;57.174;-2.112;2022-07-23T03:49:50;14.10;99.90
25556;DHT22;13447;57.174;-2.112;2022-07-23T03:52:17;14.10;99.90
25556;DHT22;13447;57.174;-2.112;2022-07-23T03:54:44;14.10;99.90
25556;DHT22;13447;57.174;-2.112;2022-07-23T03:57:11;14.10;99.90
25556;DHT22;13447;57.174;-2.112;2022-07-23T03:59:37;14.10;99.90
25556;DHT22;13447;57.174;-2.112;2022-07-23T04:02:04;14.20;99.90
25556;DHT22;13447;57.174;-2.112;2022-07-23T04:04:31;14.10;99.90
25556;DHT22;13447;57.174;-2.112;2022-07-23T04:06:58;14.10;99.90
25556;DHT22;13447;57.174;-2.112;2022-07-23T04:09:25;14.10;99.90
25556;DHT22;13447;57.174;-2.112;2022-07-23T04:11:52;14.10;99.90
25556;DHT22;13447;57.174;-2.112;2022-07-23T04:14:19;14.20;99.90
25556;DHT22;13447;57.174;-2.112;2022-07-23T04:16:46;14.20;99.90
25556;DHT22;13447;57.174;-2.112;2022-07-23T04:19:13;14.20;99.90
25556;DHT22;13447;57.174;-2.112;2022-07-23T04:21:40;14.20;99.90
25556;DHT22;13447;57.174;-2.112;2022-07-23T04:24:07;14.20;99.90
25556;DHT22;13447;57.174;-2.112;2022-07-23T04:26:34;14.30;99.90
25556;DHT22;13447;57.174;-2.112;2022-07-23T04:29:01;14.30;99.90
25556;DHT22;13447;57.174;-2.112;2022-07-23T04:31:28;14.30;99.90
25556;DHT22;13447;57.174;-2.112;2022-07-23T04:34:02;14.30;99.90
25556;DHT22;13447;57.174;-2.112;2022-07-23T04:36:29;14.30;99.90
25556;DHT22;13447;57.174;-2.112;2022-07-23T04:38:56;14.30;99.90
25556;DHT22;13447;57.174;-2.112;2022-07-23T04:41:23;14.30;99.90
25556;DHT22;13447;57.174;-2.112;2022-07-23T04:43:50;14.30;99.90
25556;DHT22;13447;57.174;-2.112;2022-07-23T04:46:17;14.40;99.90
25556;DHT22;13447;57.174;-2.112;2022-07-23T04:48:44;14.40;99.90
25556;DHT22;13447;57.174;-2.112;2022-07-23T04:51:11;14.40;99.90
25556;DHT22;13447;57.174;-2.112;2022-07-23T04:53:38;14.40;99.90
25556;DHT22;13447;57.174;-2.112;2022-07-23T04:56:05;14.40;99.90
25556;DHT22;13447;57.174;-2.112;2022-07-23T04:58:33;14.50;99.90
25556;DHT22;13447;57.174;-2.112;2022-07-23T05:00:59;14.50;99.90
25556;DHT22;13447;57.174;-2.112;2022-07-23T05:03:27;14.50;99.90
25556;DHT22;13447;57.174;-2.112;2022-07-23T05:05:54;14.50;99.90
25556;DHT22;13447;57.174;-2.112;2022-07-23T05:08:21;14.50;99.90
25556;DHT22;13447;57.174;-2.112;2022-07-23T05:10:48;14.60;99.90
25556;DHT22;13447;57.174;-2.112;2022-07-23T05:13:15;14.60;99.90
25556;DHT22;13447;57.174;-2.112;2022-07-23T05:15:43;14.60;99.90
25556;DHT22;13447;57.174;-2.112;2022-07-23T05:18:11;14.60;99.90
25556;DHT22;13447;57.174;-2.112;2022-07-23T05:20:38;14.70;99.90
25556;DHT22;13447;57.174;-2.112;2022-07-23T05:23:05;14.70;99.90
25556;DHT22;13447;57.174;-2.112;2022-07-23T05:25:32;14.70;99.90
25556;DHT22;13447;57.174;-2.112;2022-07-23T05:27:59;14.70;99.90
25556;DHT22;13447;57.174;-2.112;2022-07-23T05:30:26;14.70;99.90
25556;DHT22;13447;57.174;-2.112;2022-07-23T05:32:52;14.70;99.90
25556;DHT22;13447;57.174;-2.112;2022-07-23T05:35:19;14.70;99.90
25556;DHT22;13447;57.174;-2.112;2022-07-23T05:37:46;14.80;99.90
25556;DHT22;13447;57.174;-2.112;2022-07-23T05:40:13;14.80;99.90
25556;DHT22;13447;57.174;-2.112;2022-07-23T05:42:41;14.80;99.90
25556;DHT22;13447;57.174;-2.112;2022-07-23T05:45:11;14.80;99.90
25556;DHT22;13447;57.174;-2.112;2022-07-23T05:47:44;14.80;99.90
25556;DHT22;13447;57.174;-2.112;2022-07-23T05:50:12;14.80;99.90
25556;DHT22;13447;57.174;-2.112;2022-07-23T05:52:40;14.80;99.90
25556;DHT22;13447;57.174;-2.112;2022-07-23T05:55:08;14.80;99.90
25556;DHT22;13447;57.174;-2.112;2022-07-23T05:57:35;14.90;99.90
25556;DHT22;13447;57.174;-2.112;2022-07-23T06:00:05;14.90;99.90
25556;DHT22;13447;57.174;-2.112;2022-07-23T06:02:33;15.00;99.90
25556;DHT22;13447;57.174;-2.112;2022-07-23T06:05:00;15.10;99.90
25556;DHT22;13447;57.174;-2.112;2022-07-23T06:07:27;15.10;99.90
25556;DHT22;13447;57.174;-2.112;2022-07-23T06:09:54;15.00;99.90
25556;DHT22;13447;57.174;-2.112;2022-07-23T06:12:21;15.10;99.90
25556;DHT22;13447;57.174;-2.112;2022-07-23T06:14:48;15.00;99.90
25556;DHT22;13447;57.174;-2.112;2022-07-23T06:17:16;15.10;99.90
25556;DHT22;13447;57.174;-2.112;2022-07-23T06:19:43;15.10;99.90
25556;DHT22;13447;57.174;-2.112;2022-07-23T06:22:10;15.10;99.90
25556;DHT22;13447;57.174;-2.112;2022-07-23T06:24:37;15.10;99.90
25556;DHT22;13447;57.174;-2.112;2022-07-23T06:27:04;15.20;99.90
25556;DHT22;13447;57.174;-2.112;2022-07-23T06:29:31;15.20;99.90
25556;DHT22;13447;57.174;-2.112;2022-07-23T06:31:58;15.20;99.90
25556;DHT22;13447;57.174;-2.112;2022-07-23T06:34:25;15.30;99.90
25556;DHT22;13447;57.174;-2.112;2022-07-23T06:36:52;15.30;99.90
25556;DHT22;13447;57.174;-2.112;2022-07-23T06:39:19;15.20;99.90
25556;DHT22;13447;57.174;-2.112;2022-07-23T06:41:46;15.20;99.90
25556;DHT22;13447;57.174;-2.112;2022-07-23T06:44:17;15.20;99.90
25556;DHT22;13447;57.174;-2.112;2022-07-23T06:46:44;15.20;99.90
25556;DHT22;13447;57.174;-2.112;2022-07-23T06:49:12;15.10;99.90
25556;DHT22;13447;57.174;-2.112;2022-07-23T06:51:39;15.10;99.90
25556;DHT22;13447;57.174;-2.112;2022-07-23T06:54:06;15.10;99.90
25556;DHT22;13447;57.174;-2.112;2022-07-23T06:56:33;15.20;99.90
25556;DHT22;13447;57.174;-2.112;2022-07-23T06:59:00;15.10;99.90
25556;DHT22;13447;57.174;-2.112;2022-07-23T07:01:27;15.10;99.90
25556;DHT22;13447;57.174;-2.112;2022-07-23T07:03:54;15.10;99.90
25556;DHT22;13447;57.174;-2.112;2022-07-23T07:06:21;15.20;99.90
25556;DHT22;13447;57.174;-2.112;2022-07-23T07:08:48;15.30;99.90
25556;DHT22;13447;57.174;-2.112;2022-07-23T07:11:15;15.30;99.90
25556;DHT22;13447;57.174;-2.112;2022-07-23T07:13:42;15.30;99.90
25556;DHT22;13447;57.174;-2.112;2022-07-23T07:16:09;15.30;99.90
25556;DHT22;13447;57.174;-2.112;2022-07-23T07:18:36;15.30;99.90
25556;DHT22;13447;57.174;-2.112;2022-07-23T07:21:03;15.20;99.90
25556;DHT22;13447;57.174;-2.112;2022-07-23T07:23:30;15.20;99.90
25556;DHT22;13447;57.174;-2.112;2022-07-23T07:25:57;15.20;99.90
25556;DHT22;13447;57.174;-2.112;2022-07-23T07:28:24;15.30;99.90
25556;DHT22;13447;57.174;-2.112;2022-07-23T07:30:51;15.20;99.90
25556;DHT22;13447;57.174;-2.112;2022-07-23T07:33:18;15.30;99.90
25556;DHT22;13447;57.174;-2.112;2022-07-23T07:35:46;15.30;99.90
25556;DHT22;13447;57.174;-2.112;2022-07-23T07:38:13;15.20;99.90
25556;DHT22;13447;57.174;-2.112;2022-07-23T07:40:40;15.30;99.90
25556;DHT22;13447;57.174;-2.112;2022-07-23T07:43:07;15.30;99.90
25556;DHT22;13447;57.174;-2.112;2022-07-23T07:45:34;15.30;99.90
25556;DHT22;13447;57.174;-2.112;2022-07-23T07:48:00;15.30;99.90
25556;DHT22;13447;57.174;-2.112;2022-07-23T07:50:27;15.40;99.90
25556;DHT22;13447;57.174;-2.112;2022-07-23T07:52:55;15.40;99.90
25556;DHT22;13447;57.174;-2.112;2022-07-23T07:55:22;15.40;99.90
25556;DHT22;13447;57.174;-2.112;2022-07-23T07:57:49;15.50;99.90
25556;DHT22;13447;57.174;-2.112;2022-07-23T08:00:17;15.50;99.90
25556;DHT22;13447;57.174;-2.112;2022-07-23T08:02:48;15.60;99.90
25556;DHT22;13447;57.174;-2.112;2022-07-23T08:05:21;15.60;99.90
25556;DHT22;13447;57.174;-2.112;2022-07-23T08:07:54;15.60;99.90
25556;DHT22;13447;57.174;-2.112;2022-07-23T08:10:22;15.60;99.90
25556;DHT22;13447;57.174;-2.112;2022-07-23T08:12:51;15.50;99.90
25556;DHT22;13447;57.174;-2.112;2022-07-23T08:17:50;15.60;99.90
25556;DHT22;13447;57.174;-2.112;2022-07-23T08:20:19;15.80;99.90
25556;DHT22;13447;57.174;-2.112;2022-07-23T08:22:49;15.90;99.90
25556;DHT22;13447;57.174;-2.112;2022-07-23T08:27:50;16.00;99.90
25556;DHT22;13447;57.174;-2.112;2022-07-23T08:30:18;16.00;99.90
25556;DHT22;13447;57.174;-2.112;2022-07-23T08:33:14;16.10;99.90
25556;DHT22;13447;57.174;-2.112;2022-07-23T08:36:00;16.10;99.90
25556;DHT22;13447;57.174;-2.112;2022-07-23T08:38:29;16.00;99.90
25556;DHT22;13447;57.174;-2.112;2022-07-23T08:40:57;16.00;99.90
25556;DHT22;13447;57.174;-2.112;2022-07-23T08:43:28;15.90;99.90
25556;DHT22;13447;57.174;-2.112;2022-07-23T08:45:58;15.90;99.90
25556;DHT22;13447;57.174;-2.112;2022-07-23T08:48:31;16.00;99.90
25556;DHT22;13447;57.174;-2.112;2022-07-23T08:51:02;16.30;99.90
25556;DHT22;13447;57.174;-2.112;2022-07-23T08:53:31;16.40;99.90
25556;DHT22;13447;57.174;-2.112;2022-07-23T08:56:00;16.40;99.90
25556;DHT22;13447;57.174;-2.112;2022-07-23T08:58:31;16.30;99.90
25556;DHT22;13447;57.174;-2.112;2022-07-23T09:00:58;16.40;99.90
25556;DHT22;13447;57.174;-2.112;2022-07-23T09:03:28;16.40;99.90
25556;DHT22;13447;57.174;-2.112;2022-07-23T09:05:56;16.40;99.90
25556;DHT22;13447;57.174;-2.112;2022-07-23T09:08:40;16.40;99.90
25556;DHT22;13447;57.174;-2.112;2022-07-23T09:11:12;16.50;99.90
25556;DHT22;13447;57.174;-2.112;2022-07-23T09:13:47;16.50;99.90
25556;DHT22;13447;57.174;-2.112;2022-07-23T09:16:25;16.50;99.90
25556;DHT22;13447;57.174;-2.112;2022-07-23T09:18:54;16.40;99.90
25556;DHT22;13447;57.174;-2.112;2022-07-23T09:21:24;16.40;99.90
25556;DHT22;13447;57.174;-2.112;2022-07-23T09:26:32;16.20;99.90
25556;DHT22;13447;57.174;-2.112;2022-07-23T09:31:59;16.10;99.90
25556;DHT22;13447;57.174;-2.112;2022-07-23T09:34:31;16.10;99.90
25556;DHT22;13447;57.174;-2.112;2022-07-23T09:37:12;16.10;99.90
25556;DHT22;13447;57.174;-2.112;2022-07-23T09:39:40;16.00;99.90
25556;DHT22;13447;57.174;-2.112;2022-07-23T09:42:20;15.90;99.90
25556;DHT22;13447;57.174;-2.112;2022-07-23T09:44:49;15.90;99.90
25556;DHT22;13447;57.174;-2.112;2022-07-23T09:47:17;15.70;99.90
25556;DHT22;13447;57.174;-2.112;2022-07-23T09:50:06;15.70;99.90
25556;DHT22;13447;57.174;-2.112;2022-07-23T09:52:49;15.50;99.90
25556;DHT22;13447;57.174;-2.112;2022-07-23T09:55:18;15.50;99.90
25556;DHT22;13447;57.174;-2.112;2022-07-23T09:57:46;15.50;99.90
25556;DHT22;13447;57.174;-2.112;2022-07-23T10:00:17;15.40;99.90
25556;DHT22;13447;57.174;-2.112;2022-07-23T10:02:46;15.50;99.90
25556;DHT22;13447;57.174;-2.112;2022-07-23T10:05:13;15.50;99.90
25556;DHT22;13447;57.174;-2.112;2022-07-23T10:07:42;15.70;99.90
25556;DHT22;13447;57.174;-2.112;2022-07-23T10:10:15;15.70;99.90
25556;DHT22;13447;57.174;-2.112;2022-07-23T10:12:46;15.70;99.90
25556;DHT22;13447;57.174;-2.112;2022-07-23T10:15:32;15.60;99.90
25556;DHT22;13447;57.174;-2.112;2022-07-23T10:17:59;15.70;99.90
25556;DHT22;13447;57.174;-2.112;2022-07-23T10:20:26;15.70;99.90
25556;DHT22;13447;57.174;-2.112;2022-07-23T10:26:05;15.60;99.90
25556;DHT22;13447;57.174;-2.112;2022-07-23T10:31:32;15.80;99.90
25556;DHT22;13447;57.174;-2.112;2022-07-23T10:37:16;15.80;99.90
25556;DHT22;13447;57.174;-2.112;2022-07-23T10:40:19;15.90;99.90
25556;DHT22;13447;57.174;-2.112;2022-07-23T10:42:49;15.80;99.90
25556;DHT22;13447;57.174;-2.112;2022-07-23T10:45:34;15.70;99.90
25556;DHT22;13447;57.174;-2.112;2022-07-23T10:48:17;15.70;99.90
25556;DHT22;13447;57.174;-2.112;2022-07-23T10:51:12;15.60;99.90
25556;DHT22;13447;57.174;-2.112;2022-07-23T10:59:04;15.70;99.90
25556;DHT22;13447;57.174;-2.112;2022-07-23T11:01:40;15.90;99.90
25556;DHT22;13447;57.174;-2.112;2022-07-23T11:04:07;16.00;99.90
25556;DHT22;13447;57.174;-2.112;2022-07-23T11:09:43;16.20;99.90
25556;DHT22;13447;57.174;-2.112;2022-07-23T11:17:31;16.50;99.90
25556;DHT22;13447;57.174;-2.112;2022-07-23T11:25:33;16.80;99.90
25556;DHT22;13447;57.174;-2.112;2022-07-23T11:28:13;16.70;99.90
25556;DHT22;13447;57.174;-2.112;2022-07-23T11:35:41;16.40;99.90
25556;DHT22;13447;57.174;-2.112;2022-07-23T11:38:14;16.30;99.90
25556;DHT22;13447;57.174;-2.112;2022-07-23T11:40:50;16.10;99.90
25556;DHT22;13447;57.174;-2.112;2022-07-23T11:43:20;15.90;99.90
25556;DHT22;13447;57.174;-2.112;2022-07-23T11:45:51;15.90;99.90
25556;DHT22;13447;57.174;-2.112;2022-07-23T11:48:28;16.10;99.90
25556;DHT22;13447;57.174;-2.112;2022-07-23T11:50:57;16.20;99.90
25556;DHT22;13447;57.174;-2.112;2022-07-23T11:53:29;16.20;99.90
25556;DHT22;13447;57.174;-2.112;2022-07-23T11:56:23;16.40;99.90
25556;DHT22;13447;57.174;-2.112;2022-07-23T11:58:55;16.60;99.90
25556;DHT22;13447;57.174;-2.112;2022-07-23T12:03:51;16.80;99.90
25556;DHT22;13447;57.174;-2.112;2022-07-23T12:06:19;17.00;99.90
25556;DHT22;13447;57.174;-2.112;2022-07-23T12:08:46;17.30;99.90
25556;DHT22;13447;57.174;-2.112;2022-07-23T12:11:13;17.30;99.90
25556;DHT22;13447;57.174;-2.112;2022-07-23T12:13:40;17.30;99.90
25556;DHT22;13447;57.174;-2.112;2022-07-23T12:16:08;17.30;99.90
25556;DHT22;13447;57.174;-2.112;2022-07-23T12:18:36;17.40;99.90
25556;DHT22;13447;57.174;-2.112;2022-07-23T12:21:04;17.30;99.90
25556;DHT22;13447;57.174;-2.112;2022-07-23T12:23:33;17.30;99.90
25556;DHT22;13447;57.174;-2.112;2022-07-23T12:26:02;17.20;99.90
25556;DHT22;13447;57.174;-2.112;2022-07-23T12:28:31;17.10;99.90
25556;DHT22;13447;57.174;-2.112;2022-07-23T12:31:04;17.00;99.90
25556;DHT22;13447;57.174;-2.112;2022-07-23T12:33:32;16.90;99.90
25556;DHT22;13447;57.174;-2.112;2022-07-23T12:36:05;16.90;99.90
25556;DHT22;13447;57.174;-2.112;2022-07-23T12:38:48;16.90;99.90
25556;DHT22;13447;57.174;-2.112;2022-07-23T12:41:16;16.80;99.90
25556;DHT22;13447;57.174;-2.112;2022-07-23T12:43:45;16.80;99.90
25556;DHT22;13447;57.174;-2.112;2022-07-23T12:46:20;16.80;99.90
25556;DHT22;13447;57.174;-2.112;2022-07-23T12:51:20;16.80;99.90
25556;DHT22;13447;57.174;-2.112;2022-07-23T12:53:48;16.90;99.90
25556;DHT22;13447;57.174;-2.112;2022-07-23T12:56:34;16.90;99.90
25556;DHT22;13447;57.174;-2.112;2022-07-23T13:01:38;16.60;99.90
25556;DHT22;13447;57.174;-2.112;2022-07-23T13:04:10;16.50;99.90
25556;DHT22;13447;57.174;-2.112;2022-07-23T13:06:59;16.50;99.90
25556;DHT22;13447;57.174;-2.112;2022-07-23T13:09:32;16.40;99.90
25556;DHT22;13447;57.174;-2.112;2022-07-23T13:12:07;16.30;99.90
25556;DHT22;13447;57.174;-2.112;2022-07-23T13:14:37;16.30;99.90
25556;DHT22;13447;57.174;-2.112;2022-07-23T13:17:05;16.30;99.90
25556;DHT22;13447;57.174;-2.112;2022-07-23T13:19:33;16.40;99.90
25556;DHT22;13447;57.174;-2.112;2022-07-23T13:22:01;16.30;99.90
25556;DHT22;13447;57.174;-2.112;2022-07-23T13:24:34;16.30;99.90
25556;DHT22;13447;57.174;-2.112;2022-07-23T13:27:04;16.30;99.90
25556;DHT22;13447;57.174;-2.112;2022-07-23T13:29:33;16.30;99.90
25556;DHT22;13447;57.174;-2.112;2022-07-23T13:32:02;16.40;99.90
25556;DHT22;13447;57.174;-2.112;2022-07-23T13:34:39;16.40;99.90
25556;DHT22;13447;57.174;-2.112;2022-07-23T13:37:07;16.40;99.90
25556;DHT22;13447;57.174;-2.112;2022-07-23T13:39:34;16.30;99.90
25556;DHT22;13447;57.174;-2.112;2022-07-23T13:42:04;16.30;99.90
25556;DHT22;13447;57.174;-2.112;2022-07-23T13:44:34;16.30;99.90
25556;DHT22;13447;57.174;-2.112;2022-07-23T13:47:02;16.30;99.90
25556;DHT22;13447;57.174;-2.112;2022-07-23T13:49:30;16.20;99.90
25556;DHT22;13447;57.174;-2.112;2022-07-23T13:51:57;16.10;99.90
25556;DHT22;13447;57.174;-2.112;2022-07-23T13:54:24;16.20;99.90
25556;DHT22;13447;57.174;-2.112;2022-07-23T13:56:54;16.20;99.90
25556;DHT22;13447;57.174;-2.112;2022-07-23T13:59:22;16.30;99.90
25556;DHT22;13447;57.174;-2.112;2022-07-23T14:01:52;16.40;99.90
25556;DHT22;13447;57.174;-2.112;2022-07-23T14:04:39;16.40;99.90
25556;DHT22;13447;57.174;-2.112;2022-07-23T14:07:08;16.50;99.90
25556;DHT22;13447;57.174;-2.112;2022-07-23T14:09:35;16.50;99.90
25556;DHT22;13447;57.174;-2.112;2022-07-23T14:12:04;16.50;99.90
25556;DHT22;13447;57.174;-2.112;2022-07-23T14:14:31;16.50;99.90
25556;DHT22;13447;57.174;-2.112;2022-07-23T14:16:59;16.50;99.90
25556;DHT22;13447;57.174;-2.112;2022-07-23T14:19:27;16.30;99.90
25556;DHT22;13447;57.174;-2.112;2022-07-23T14:21:56;16.40;99.90
25556;DHT22;13447;57.174;-2.112;2022-07-23T14:24:23;16.30;99.90
25556;DHT22;13447;57.174;-2.112;2022-07-23T14:26:55;16.30;99.90
25556;DHT22;13447;57.174;-2.112;2022-07-23T14:29:23;16.40;99.90
25556;DHT22;13447;57.174;-2.112;2022-07-23T14:31:50;16.40;99.90
25556;DHT22;13447;57.174;-2.112;2022-07-23T14:34:18;16.50;99.90
25556;DHT22;13447;57.174;-2.112;2022-07-23T14:36:53;16.50;99.90
25556;DHT22;13447;57.174;-2.112;2022-07-23T14:39:20;16.60;99.90
25556;DHT22;13447;57.174;-2.112;2022-07-23T14:41:48;16.70;99.90
25556;DHT22;13447;57.174;-2.112;2022-07-23T14:44:15;16.50;99.90
25556;DHT22;13447;57.174;-2.112;2022-07-23T14:46:42;16.50;99.90
25556;DHT22;13447;57.174;-2.112;2022-07-23T14:49:10;16.60;99.90
25556;DHT22;13447;57.174;-2.112;2022-07-23T14:51:37;16.60;99.90
25556;DHT22;13447;57.174;-2.112;2022-07-23T14:54:05;16.60;99.90
25556;DHT22;13447;57.174;-2.112;2022-07-23T14:56:32;16.70;99.90
25556;DHT22;13447;57.174;-2.112;2022-07-23T14:59:01;16.90;99.90
25556;DHT22;13447;57.174;-2.112;2022-07-23T15:01:30;17.00;99.90
25556;DHT22;13447;57.174;-2.112;2022-07-23T15:04:00;17.30;99.90
25556;DHT22;13447;57.174;-2.112;2022-07-23T15:06:47;17.60;99.90
25556;DHT22;13447;57.174;-2.112;2022-07-23T15:09:15;17.60;99.90
25556;DHT22;13447;57.174;-2.112;2022-07-23T15:11:42;17.50;99.90
25556;DHT22;13447;57.174;-2.112;2022-07-23T15:14:09;17.50;99.90
25556;DHT22;13447;57.174;-2.112;2022-07-23T15:16:43;17.30;99.90
25556;DHT22;13447;57.174;-2.112;2022-07-23T15:19:10;17.30;99.90
25556;DHT22;13447;57.174;-2.112;2022-07-23T15:21:37;17.20;99.90
25556;DHT22;13447;57.174;-2.112;2022-07-23T15:24:04;17.30;99.90
25556;DHT22;13447;57.174;-2.112;2022-07-23T15:26:31;17.10;99.90
25556;DHT22;13447;57.174;-2.112;2022-07-23T15:28:58;17.00;99.90
25556;DHT22;13447;57.174;-2.112;2022-07-23T15:31:26;17.10;99.90
25556;DHT22;13447;57.174;-2.112;2022-07-23T15:33:54;17.10;99.90
25556;DHT22;13447;57.174;-2.112;2022-07-23T15:36:22;17.20;99.90
25556;DHT22;13447;57.174;-2.112;2022-07-23T15:38:49;17.10;99.90
25556;DHT22;13447;57.174;-2.112;2022-07-23T15:41:17;17.30;99.90
25556;DHT22;13447;57.174;-2.112;2022-07-23T15:43:45;17.40;99.90
25556;DHT22;13447;57.174;-2.112;2022-07-23T15:46:13;17.60;99.90
25556;DHT22;13447;57.174;-2.112;2022-07-23T15:48:42;17.50;99.90
25556;DHT22;13447;57.174;-2.112;2022-07-23T15:51:09;17.50;99.90
25556;DHT22;13447;57.174;-2.112;2022-07-23T15:53:36;17.60;99.90
25556;DHT22;13447;57.174;-2.112;2022-07-23T15:56:08;17.50;99.90
25556;DHT22;13447;57.174;-2.112;2022-07-23T15:58:42;17.50;99.90
25556;DHT22;13447;57.174;-2.112;2022-07-23T16:01:10;17.60;99.90
25556;DHT22;13447;57.174;-2.112;2022-07-23T16:03:39;17.40;99.90
25556;DHT22;13447;57.174;-2.112;2022-07-23T16:06:07;17.60;99.90
25556;DHT22;13447;57.174;-2.112;2022-07-23T16:08:43;17.70;99.90
25556;DHT22;13447;57.174;-2.112;2022-07-23T16:11:11;17.90;99.90
25556;DHT22;13447;57.174;-2.112;2022-07-23T16:13:40;17.90;99.90
25556;DHT22;13447;57.174;-2.112;2022-07-23T16:16:07;17.80;99.90
25556;DHT22;13447;57.174;-2.112;2022-07-23T16:18:35;17.60;99.90